Time;durP1;ratioP1;P1;durP2;ratioP2;P2;SDS_P1;SDS_P2;PMS_P1;PMS_P2;Temp;Humidity;BMP_temperature;BMP_pressure;BME280_temperature;BME280_humidity;BME280_pressure;Samples;Min_cycle;Max_cycle;Signal;HPM_P1;HPM_P2
2024/02/06 00:02:23;;;;;;;3.05;1.17;;;;;;;6.07;47.20;93161.22;2072025;69;20615;-83
2024/02/06 00:04:48;;;;;;;2.28;1.30;;;;;;;5.98;47.79;93166.69;2072141;69;20224;-85
2024/02/06 00:07:14;;;;;;;3.10;1.10;;;;;;;6.10;47.70;93154.50;2072628;69;20267;-84
2024/02/06 00:09:40;;;;;;;3.70;1.30;;;;;;;6.22;47.68;93157.53;2072449;69;20292;-86
2024/02/06 00:12:09;;;;;;;1.65;1.02;;;;;;;6.28;47.31;93151.75;2072276;69;20153;-83
2024/02/06 00:14:35;;;;;;;2.80;1.40;;;;;;;5.88;48.61;93151.84;2072622;69;20217;-88
2024/02/06 00:17:01;;;;;;;6.72;1.55;;;;;;;5.91;48.55;93148.66;2072475;69;20582;-84
2024/02/06 00:19:26;;;;;;;3.42;1.40;;;;;;;5.93;48.05;93137.66;2072629;69;20144;-85
2024/02/06 00:21:52;;;;;;;2.65;1.25;;;;;;;5.94;48.11;93141.94;2075371;69;20148;-85
2024/02/06 00:24:21;;;;;;;2.22;1.20;;;;;;;5.98;48.47;93149.94;2073482;69;20152;-83
2024/02/06 00:26:48;;;;;;;1.80;1.10;;;;;;;5.99;47.99;93134.63;2072228;69;20145;-87
2024/02/06 00:29:16;;;;;;;2.92;1.35;;;;;;;5.72;48.70;93143.53;2069075;69;20658;-86
2024/02/06 00:31:43;;;;;;;2.88;1.40;;;;;;;5.70;49.35;93151.03;2072464;69;20156;-83
2024/02/06 00:34:12;;;;;;;5.45;1.35;;;;;;;5.65;49.85;93144.34;2073157;69;20618;-80
2024/02/06 00:36:39;;;;;;;2.88;1.10;;;;;;;5.72;48.78;93142.81;2074543;69;20132;-86
2024/02/06 00:39:05;;;;;;;1.98;1.38;;;;;;;5.27;50.24;93145.31;2078939;69;20179;-82
2024/02/06 00:41:30;;;;;;;1.98;1.08;;;;;;;5.32;50.46;93122.00;2076337;69;20139;-90
2024/02/06 00:43:56;;;;;;;2.05;1.10;;;;;;;5.57;50.40;93138.81;2072960;69;20241;-88
2024/02/06 00:46:21;;;;;;;3.15;1.20;;;;;;;5.07;51.11;93110.03;2072252;69;20512;-89
2024/02/06 00:48:47;;;;;;;3.10;1.25;;;;;;;5.39;50.44;93130.91;2072039;69;20152;-83
2024/02/06 00:51:13;;;;;;;2.67;0.98;;;;;;;5.27;51.22;93139.72;2072391;69;20140;-81
2024/02/06 00:53:39;;;;;;;3.13;1.20;;;;;;;5.38;51.11;93119.00;2072568;69;20148;-84
2024/02/06 00:56:05;;;;;;;3.58;0.93;;;;;;;4.97;51.09;93111.94;2072694;69;20140;-87
2024/02/06 00:58:31;;;;;;;1.55;1.00;;;;;;;4.98;51.82;93121.81;2072145;69;20142;-93
2024/02/06 01:00:57;;;;;;;3.22;1.13;;;;;;;5.05;51.67;93115.47;2072572;69;20140;-88
2024/02/06 01:03:23;;;;;;;1.75;1.08;;;;;;;5.09;51.17;93113.75;2072984;69;20203;-89
2024/02/06 01:05:48;;;;;;;2.10;1.10;;;;;;;4.53;52.46;93106.69;2072082;69;20132;-89
2024/02/06 01:08:15;;;;;;;3.63;1.15;;;;;;;4.79;52.17;93113.88;2071415;69;20144;-89
2024/02/06 01:10:41;;;;;;;2.10;1.00;;;;;;;4.99;52.59;93106.53;2071248;69;20182;-85
2024/02/06 01:13:07;;;;;;;2.63;1.10;;;;;;;4.90;51.62;93110.66;2071462;69;20703;-89
2024/02/06 01:15:33;;;;;;;3.55;1.00;;;;;;;4.99;51.62;93123.28;2071229;69;20179;-88
2024/02/06 01:17:59;;;;;;;2.20;0.90;;;;;;;4.80;52.12;93116.09;2068165;69;20148;-92
2024/02/06 01:20:24;;;;;;;3.65;1.30;;;;;;;4.92;51.96;93098.97;2071332;69;20167;-89
2024/02/06 01:22:50;;;;;;;3.50;1.55;;;;;;;4.69;52.68;93105.38;2072918;69;20592;-88
2024/02/06 01:25:16;;;;;;;3.13;1.25;;;;;;;4.84;52.85;93104.56;2073867;69;20132;-85
2024/02/06 01:27:42;;;;;;;1.88;1.00;;;;;;;4.81;52.27;93098.06;2072614;69;20159;-83
2024/02/06 01:30:08;;;;;;;3.63;1.30;;;;;;;4.79;51.51;93119.47;2072390;69;20148;-87
2024/02/06 01:32:35;;;;;;;2.15;1.20;;;;;;;4.82;51.99;93107.91;2072952;69;20144;-84
2024/02/06 01:35:00;;;;;;;5.03;1.48;;;;;;;4.51;53.04;93123.25;2073174;69;20643;-87
2024/02/06 01:37:29;;;;;;;2.95;1.30;;;;;;;4.65;53.28;93110.56;2072998;69;20147;-82
2024/02/06 01:39:55;;;;;;;2.47;1.10;;;;;;;4.68;52.89;93111.50;2072942;69;20246;-85
2024/02/06 01:42:21;;;;;;;2.63;1.10;;;;;;;4.81;52.16;93114.03;2072415;69;20136;-89
2024/02/06 01:44:48;;;;;;;1.48;0.90;;;;;;;4.87;52.45;93094.34;2072573;69;20164;-88
2024/02/06 01:47:14;;;;;;;1.38;1.05;;;;;;;4.26;53.70;93092.44;2073147;69;20205;-80
2024/02/06 01:49:42;;;;;;;3.88;1.42;;;;;;;4.57;53.38;93095.91;2072815;69;20196;-83
2024/02/06 01:52:08;;;;;;;2.67;1.30;;;;;;;4.55;53.23;93110.41;2070629;69;20148;-79
2024/02/06 01:54:34;;;;;;;2.50;1.00;;;;;;;4.50;53.71;93091.84;2072332;69;20612;-81
2024/02/06 01:57:05;;;;;;;2.55;1.02;;;;;;;4.49;52.90;93090.38;2070767;69;20259;-88
2024/02/06 01:59:31;;;;;;;3.15;1.23;;;;;;;4.07;54.49;93093.59;2069573;69;20184;-82
2024/02/06 02:01:57;;;;;;;2.45;1.08;;;;;;;4.22;54.53;93076.13;2069469;69;20162;-91
2024/02/06 02:04:24;;;;;;;2.22;1.20;;;;;;;4.16;54.43;93085.97;2069202;69;20181;-87
2024/02/06 02:06:50;;;;;;;4.63;1.30;;;;;;;4.39;53.84;93075.50;2069348;69;20175;-84
2024/02/06 02:09:15;;;;;;;2.58;1.00;;;;;;;4.20;53.81;93075.94;2068843;69;20153;-85
2024/02/06 02:11:42;;;;;;;2.10;1.08;;;;;;;4.10;54.62;93075.03;2069929;69;20140;-87
2024/02/06 02:14:09;;;;;;;2.30;0.90;;;;;;;4.30;53.92;93073.31;2069242;69;20152;-89
2024/02/06 02:16:35;;;;;;;1.83;0.80;;;;;;;4.40;52.99;93073.47;2069577;69;20144;-88
2024/02/06 02:19:00;;;;;;;2.55;1.08;;;;;;;3.82;53.64;93062.81;2069270;69;20180;-85
2024/02/06 02:21:29;;;;;;;1.20;1.00;;;;;;;4.08;53.49;93072.06;2069052;69;20124;-85
2024/02/06 02:23:56;;;;;;;7.25;1.35;;;;;;;4.14;53.94;93069.81;2069017;69;20172;-85
2024/02/06 02:26:22;;;;;;;2.33;1.10;;;;;;;4.34;53.22;93059.72;2069151;69;20152;-85
2024/02/06 02:28:49;;;;;;;1.85;1.08;;;;;;;3.91;54.62;93069.13;2068698;69;20231;-89
2024/02/06 02:31:15;;;;;;;3.97;1.05;;;;;;;4.38;53.51;93071.25;2068807;69;20140;-83
2024/02/06 02:33:41;;;;;;;1.63;0.85;;;;;;;4.43;52.95;93061.19;2068123;69;20882;-83
2024/02/06 02:36:08;;;;;;;2.22;0.93;;;;;;;4.55;52.70;93048.34;2068210;69;20578;-82
2024/02/06 02:38:34;;;;;;;2.25;0.85;;;;;;;4.47;52.97;93044.84;2066634;69;20153;-82
2024/02/06 02:41:01;;;;;;;4.18;1.35;;;;;;;3.39;55.85;93068.53;2064881;69;20172;-90
2024/02/06 02:43:26;;;;;;;2.45;0.90;;;;;;;4.02;53.73;93055.53;2065776;69;20144;-84
2024/02/06 02:45:52;;;;;;;2.28;0.98;;;;;;;4.30;53.42;93046.16;2065557;69;20182;-88
2024/02/06 02:48:19;;;;;;;2.72;0.90;;;;;;;4.18;53.00;93039.53;2065507;69;20239;-88
2024/02/06 02:50:45;;;;;;;2.15;0.95;;;;;;;4.27;52.32;93038.97;2065726;69;20183;-80
2024/02/06 02:53:11;;;;;;;1.55;0.93;;;;;;;4.31;52.60;93044.88;2068487;69;20141;-83
2024/02/06 02:55:37;;;;;;;4.18;0.95;;;;;;;4.08;53.58;93042.16;2066116;69;20228;-84
2024/02/06 02:58:05;;;;;;;2.67;1.00;;;;;;;4.13;52.46;93023.75;2065827;69;20244;-80
2024/02/06 03:00:31;;;;;;;1.65;0.82;;;;;;;4.25;53.06;93033.19;2066355;69;20222;-82
2024/02/06 03:02:56;;;;;;;2.47;0.85;;;;;;;4.19;52.76;93026.34;2065766;69;20141;-87
2024/02/06 03:05:22;;;;;;;1.98;1.00;;;;;;;4.16;52.71;93033.03;2066327;69;20173;-82
2024/02/06 03:07:47;;;;;;;4.32;1.10;;;;;;;4.13;52.89;93004.25;2065041;69;20160;-85
2024/02/06 03:10:13;;;;;;;1.70;0.93;;;;;;;4.22;53.25;93014.06;2065552;69;20494;-87
2024/02/06 03:12:39;;;;;;;1.60;1.05;;;;;;;4.12;52.76;92999.22;2065970;69;20673;-88
2024/02/06 03:15:05;;;;;;;3.88;1.00;;;;;;;4.02;53.08;92991.44;2065312;69;20148;-87
2024/02/06 03:17:31;;;;;;;1.30;0.98;;;;;;;4.12;52.65;93013.91;2065781;69;20696;-85
2024/02/06 03:19:56;;;;;;;2.42;0.93;;;;;;;4.10;52.87;93004.63;2067008;69;20143;-82
2024/02/06 03:22:26;;;;;;;1.67;0.70;;;;;;;4.19;53.38;92992.91;2065660;69;20133;-82
2024/02/06 03:24:52;;;;;;;1.77;0.90;;;;;;;4.02;52.74;92999.81;2071514;69;20601;-80
2024/02/06 03:27:18;;;;;;;3.58;1.60;;;;;;;3.72;54.10;93002.69;2070337;69;20165;-81
2024/02/06 03:29:44;;;;;;;2.10;1.17;;;;;;;4.10;53.82;93010.22;2069080;69;20139;-87
2024/02/06 03:32:10;;;;;;;1.50;0.88;;;;;;;4.20;53.15;93005.53;2069142;69;20612;-86
2024/02/06 03:34:36;;;;;;;3.63;0.70;;;;;;;4.12;53.11;92977.66;2069115;69;20152;-87
2024/02/06 03:37:02;;;;;;;1.75;0.80;;;;;;;4.25;51.83;93007.38;2069152;69;20153;-88
2024/02/06 03:39:28;;;;;;;2.38;0.95;;;;;;;4.13;52.35;93018.19;2068840;69;20603;-86
2024/02/06 03:41:54;;;;;;;6.80;1.00;;;;;;;3.96;52.80;92992.97;2069120;69;20133;-83
2024/02/06 03:44:21;;;;;;;3.35;1.23;;;;;;;4.07;52.93;93003.69;2068861;69;20148;-83
2024/02/06 03:46:50;;;;;;;3.13;1.00;;;;;;;4.03;53.16;93008.91;2068154;69;20195;-88
2024/02/06 03:49:15;;;;;;;2.33;1.13;;;;;;;3.90;52.78;93006.38;2068273;69;20180;-85
2024/02/06 03:51:42;;;;;;;3.67;3.00;;;;;;;3.89;52.31;92957.50;2068679;69;20218;-84
2024/02/06 03:54:09;;;;;;;2.10;1.35;;;;;;;4.33;51.02;92994.16;2068641;69;20526;-83
2024/02/06 03:56:34;;;;;;;1.50;0.80;;;;;;;4.14;51.46;92986.22;2068442;69;20230;-85
2024/02/06 03:59:00;;;;;;;2.78;1.17;;;;;;;4.17;51.73;92982.31;2067964;69;20608;-81
2024/02/06 04:01:26;;;;;;;5.55;2.08;;;;;;;3.49;53.17;92995.09;2067946;69;20156;-89
2024/02/06 04:03:51;;;;;;;6.95;2.67;;;;;;;3.82;53.75;93001.53;2067840;69;20168;-88
2024/02/06 04:06:20;;;;;;;3.63;1.70;;;;;;;4.09;52.43;92995.53;2067410;69;20173;-86
2024/02/06 04:08:46;;;;;;;3.63;1.30;;;;;;;4.09;51.89;92967.69;2064908;69;20548;-88
2024/02/06 04:11:12;;;;;;;1.55;1.00;;;;;;;4.31;51.85;92993.97;2064990;69;20137;-86
2024/02/06 04:13:39;;;;;;;15.63;6.97;;;;;;;4.20;51.61;92992.31;2065227;69;20224;-90
2024/02/06 04:16:09;;;;;;;7.18;3.45;;;;;;;4.27;50.89;92993.63;2065247;69;20152;-89
2024/02/06 04:18:36;;;;;;;7.30;3.67;;;;;;;4.30;51.54;92987.63;2065564;69;20149;-88
2024/02/06 04:21:02;;;;;;;6.13;3.60;;;;;;;3.82;52.67;92984.09;2066679;69;20296;-86
2024/02/06 04:23:28;;;;;;;5.47;2.38;;;;;;;3.98;53.01;92993.13;2065420;69;20140;-84
2024/02/06 04:25:54;;;;;;;2.65;1.60;;;;;;;4.35;50.14;92997.09;2065630;69;20600;-86
2024/02/06 04:28:23;;;;;;;1.38;0.80;;;;;;;4.37;48.89;92947.13;2065373;69;20148;-88
2024/02/06 04:30:50;;;;;;;1.50;0.70;;;;;;;4.70;49.46;92988.97;2065275;69;20149;-84
2024/02/06 04:33:16;;;;;;;4.93;1.88;;;;;;;4.09;50.94;92967.69;2065218;69;20200;-81
2024/02/06 04:35:41;;;;;;;4.65;2.78;;;;;;;4.28;50.73;92986.75;2065199;69;20165;-88
2024/02/06 04:38:07;;;;;;;5.78;2.80;;;;;;;4.24;51.53;92984.31;2065003;69;20172;-84
2024/02/06 04:40:34;;;;;;;4.25;1.98;;;;;;;4.21;51.01;92968.72;2065299;69;20149;-83
2024/02/06 04:43:00;;;;;;;5.47;2.00;;;;;;;3.79;52.04;92987.97;2065448;69;20187;-84
2024/02/06 04:45:25;;;;;;;8.63;3.28;;;;;;;4.08;51.29;92983.66;2068218;69;20149;-84
2024/02/06 04:47:53;;;;;;;9.80;4.75;;;;;;;4.08;51.35;92980.88;2068702;69;20149;-86
2024/02/06 04:50:21;;;;;;;6.32;3.13;;;;;;;4.21;51.18;92979.13;2068765;69;20169;-89
2024/02/06 04:52:47;;;;;;;7.95;2.72;;;;;;;4.18;51.49;92969.88;2069045;69;20136;-84
2024/02/06 04:55:12;;;;;;;5.40;2.05;;;;;;;4.01;51.19;92972.53;2068513;69;20228;-82
2024/02/06 04:57:39;;;;;;;3.78;1.88;;;;;;;3.89;52.20;92969.38;2070525;69;20124;-86
2024/02/06 05:00:11;;;;;;;6.78;3.42;;;;;;;3.98;52.43;92962.50;2071438;69;20160;-81
2024/02/06 05:02:40;;;;;;;2.10;1.17;;;;;;;3.91;52.23;92946.56;2069719;69;20144;-80
2024/02/06 05:05:06;;;;;;;1.48;0.80;;;;;;;4.27;50.62;92965.75;2069367;69;20148;-87
2024/02/06 05:07:33;;;;;;;3.47;1.77;;;;;;;4.00;51.83;92960.63;2069196;69;20253;-86
2024/02/06 05:09:58;;;;;;;4.70;2.10;;;;;;;3.97;52.16;92955.44;2066117;69;20148;-85
2024/02/06 05:12:29;;;;;;;3.58;2.40;;;;;;;4.04;51.74;92958.22;2067714;69;20141;-83
2024/02/06 05:14:54;;;;;;;2.47;1.80;;;;;;;4.04;51.62;92957.47;2066202;69;20145;-88
2024/02/06 05:17:20;;;;;;;2.92;1.70;;;;;;;3.95;52.52;92956.00;2065976;69;20175;-87
2024/02/06 05:19:45;;;;;;;2.75;1.35;;;;;;;4.04;51.48;92949.13;2065367;69;20152;-90
2024/02/06 05:22:11;;;;;;;5.68;1.40;;;;;;;3.72;52.04;92955.34;2066083;69;20519;-82
2024/02/06 05:24:37;;;;;;;2.03;1.23;;;;;;;3.86;52.32;92955.88;2065490;69;20223;-88
2024/02/06 05:27:03;;;;;;;6.28;2.33;;;;;;;3.81;52.19;92944.34;2065604;69;20144;-90
2024/02/06 05:29:30;;;;;;;3.78;2.08;;;;;;;3.93;52.47;92941.16;2065968;69;20145;-88
2024/02/06 05:31:56;;;;;;;5.97;2.00;;;;;;;3.67;52.28;92934.75;2065612;69;20512;-83
2024/02/06 05:34:23;;;;;;;3.50;1.70;;;;;;;3.88;52.55;92937.28;2065242;69;20145;-81
2024/02/06 05:36:48;;;;;;;2.97;1.70;;;;;;;4.00;51.86;92943.94;2065964;69;20165;-85
2024/02/06 05:39:14;;;;;;;3.60;1.33;;;;;;;3.96;52.16;92953.97;2065991;69;20228;-84
2024/02/06 05:41:40;;;;;;;3.00;1.58;;;;;;;3.81;52.46;92952.72;2066533;69;20157;-86
2024/02/06 05:44:05;;;;;;;4.22;2.03;;;;;;;3.81;51.85;92935.25;2066180;69;20157;-87
2024/02/06 05:46:31;;;;;;;1.48;1.08;;;;;;;4.38;48.98;92937.44;2066000;69;20216;-89
2024/02/06 05:48:57;;;;;;;1.23;0.90;;;;;;;4.51;47.92;92928.09;2065983;69;20172;-87
2024/02/06 05:51:23;;;;;;;1.30;0.82;;;;;;;4.55;48.84;92934.03;2065827;69;20151;-83
2024/02/06 05:53:53;;;;;;;1.92;1.00;;;;;;;4.57;48.57;92936.97;2066662;69;20137;-87
2024/02/06 05:56:19;;;;;;;3.03;1.20;;;;;;;4.48;48.57;92929.22;2066398;69;20144;-85
2024/02/06 05:58:45;;;;;;;7.55;2.13;;;;;;;4.16;49.67;92910.41;2066074;69;20521;-84
2024/02/06 06:01:10;;;;;;;6.47;2.33;;;;;;;4.18;50.45;92942.00;2065972;69;20145;-89
2024/02/06 06:03:36;;;;;;;6.38;2.03;;;;;;;4.22;50.60;92941.63;2065190;69;20589;-83
2024/02/06 06:06:02;;;;;;;4.63;1.83;;;;;;;4.33;49.91;92935.63;2066284;69;20211;-88
2024/02/06 06:08:28;;;;;;;2.40;1.10;;;;;;;4.33;49.69;92916.09;2066903;69;20631;-84
2024/02/06 06:10:56;;;;;;;2.25;1.20;;;;;;;4.59;48.50;92926.75;2069082;69;20177;-89
2024/02/06 06:13:25;;;;;;;6.57;2.03;;;;;;;4.67;48.19;92929.47;2068719;69;20537;-87
2024/02/06 06:15:51;;;;;;;5.47;2.60;;;;;;;4.82;46.96;92934.97;2069108;69;20275;-85
2024/02/06 06:18:18;;;;;;;4.45;2.25;;;;;;;4.69;47.00;92937.28;2068505;69;20172;-83
2024/02/06 06:20:44;;;;;;;5.05;2.25;;;;;;;4.63;49.73;92908.84;2066197;69;20144;-89
2024/02/06 06:23:09;;;;;;;5.90;1.98;;;;;;;4.76;52.18;92928.84;2065644;69;20211;-86
2024/02/06 06:25:35;;;;;;;6.38;1.73;;;;;;;4.96;52.02;92931.91;2065950;69;20149;-89
2024/02/06 06:28:00;;;;;;;4.10;1.48;;;;;;;4.89;50.54;92915.94;2066309;69;20251;-81
2024/02/06 06:30:26;;;;;;;3.42;1.30;;;;;;;5.18;46.82;92914.25;2069162;69;20145;-83
2024/02/06 06:32:52;;;;;;;3.78;1.50;;;;;;;5.15;46.67;92931.38;2066166;69;20141;-83
2024/02/06 06:35:19;;;;;;;2.72;1.50;;;;;;;5.10;47.60;92924.72;2065845;69;20161;-83
2024/02/06 06:37:44;;;;;;;2.75;1.55;;;;;;;5.12;47.54;92916.50;2064822;69;20605;-83
2024/02/06 06:40:11;;;;;;;3.78;1.70;;;;;;;5.04;47.91;92910.25;2065767;69;20160;-85
2024/02/06 06:42:36;;;;;;;5.53;2.22;;;;;;;4.93;47.63;92908.66;2065806;69;20203;-86
2024/02/06 06:45:02;;;;;;;7.45;3.33;;;;;;;4.95;48.19;92916.44;2065654;69;20601;-87
2024/02/06 06:47:29;;;;;;;6.10;3.13;;;;;;;4.87;48.90;92910.22;2065547;69;20202;-82
2024/02/06 06:49:55;;;;;;;3.20;1.90;;;;;;;4.83;47.69;92888.28;2065586;69;20188;-85
2024/02/06 06:52:21;;;;;;;4.75;2.50;;;;;;;4.77;48.43;92902.47;2065137;69;20157;-85
2024/02/06 06:54:47;;;;;;;4.60;2.30;;;;;;;4.92;48.42;92906.44;2068290;69;20144;-84
2024/02/06 06:57:12;;;;;;;3.83;2.00;;;;;;;4.91;49.05;92911.28;2069000;69;20136;-83
2024/02/06 06:59:39;;;;;;;3.10;1.33;;;;;;;4.97;47.98;92902.69;2069245;69;20152;-84
2024/02/06 07:02:05;;;;;;;6.15;1.50;;;;;;;5.20;46.16;92903.25;2069037;69;20151;-83
2024/02/06 07:04:31;;;;;;;2.72;1.20;;;;;;;5.29;45.98;92915.81;2068867;69;20179;-81
2024/02/06 07:06:56;;;;;;;3.75;1.25;;;;;;;5.39;45.08;92910.34;2069048;69;20505;-80
2024/02/06 07:09:24;;;;;;;4.53;1.73;;;;;;;5.29;45.10;92908.19;2069004;69;20144;-82
2024/02/06 07:11:49;;;;;;;3.58;1.63;;;;;;;5.50;45.14;92910.63;2069142;69;20232;-82
2024/02/06 07:14:15;;;;;;;1.83;1.27;;;;;;;5.50;45.35;92907.81;2068952;69;20140;-83
2024/02/06 07:16:41;;;;;;;4.15;1.50;;;;;;;5.49;47.84;92914.69;2068979;69;20168;-81
2024/02/06 07:19:07;;;;;;;1.77;1.30;;;;;;;5.49;47.87;92913.97;2068822;69;20144;-81
2024/02/06 07:21:33;;;;;;;2.88;1.17;;;;;;;5.50;47.45;92901.50;2068824;69;20577;-81
2024/02/06 07:23:59;;;;;;;2.53;1.40;;;;;;;5.62;45.79;92919.22;2067915;69;20632;-82
2024/02/06 07:26:25;;;;;;;5.93;2.17;;;;;;;5.33;47.51;92935.69;2068312;69;20149;-80
2024/02/06 07:28:51;;;;;;;5.20;2.00;;;;;;;5.53;47.64;92923.41;2065529;69;20255;-82
2024/02/06 07:31:17;;;;;;;7.43;1.90;;;;;;;5.67;47.70;92912.66;2065716;69;20145;-82
2024/02/06 07:33:43;;;;;;;6.22;3.50;;;;;;;5.48;47.42;92921.59;2065432;69;20147;-83
2024/02/06 07:36:09;;;;;;;9.25;3.30;;;;;;;5.74;47.80;92934.22;2065046;69;20179;-82
2024/02/06 07:38:36;;;;;;;10.40;3.72;;;;;;;4.84;49.11;92917.66;2065435;69;20137;-81
2024/02/06 07:41:03;;;;;;;7.25;3.08;;;;;;;5.43;49.01;92917.00;2065459;69;20148;-82
2024/02/06 07:43:29;;;;;;;8.23;3.45;;;;;;;5.71;48.81;92929.75;2065559;69;20270;-82
2024/02/06 07:45:55;;;;;;;6.47;2.50;;;;;;;5.74;48.96;92927.88;2064984;69;20195;-82
2024/02/06 07:48:23;;;;;;;4.85;2.65;;;;;;;5.85;48.23;92916.94;2064514;69;20223;-82
2024/02/06 07:50:49;;;;;;;13.35;3.78;;;;;;;5.92;47.52;92925.88;2064807;69;20212;-81
2024/02/06 07:53:16;;;;;;;7.05;3.30;;;;;;;5.73;48.27;92913.19;2064592;69;20121;-82
2024/02/06 07:55:43;;;;;;;9.77;3.33;;;;;;;5.61;48.71;92920.56;2065127;69;20145;-81
2024/02/06 07:58:08;;;;;;;19.92;3.78;;;;;;;5.85;49.02;92927.38;2064654;69;20159;-82
2024/02/06 08:00:35;;;;;;;7.28;3.20;;;;;;;6.02;49.24;92926.69;2065899;69;20229;-81
2024/02/06 08:03:01;;;;;;;7.38;4.03;;;;;;;6.21;48.93;92937.28;2065409;69;20232;-81
2024/02/06 08:05:28;;;;;;;9.95;4.25;;;;;;;6.22;48.16;92935.94;2065674;69;20192;-84
2024/02/06 08:07:54;;;;;;;12.43;4.45;;;;;;;6.31;48.20;92916.44;2065397;69;20616;-82
2024/02/06 08:10:20;;;;;;;20.08;7.10;;;;;;;6.45;47.70;92942.00;2065423;69;20168;-81
2024/02/06 08:12:47;;;;;;;18.85;7.20;;;;;;;6.40;48.70;92940.19;2065350;69;20145;-81
2024/02/06 08:15:13;;;;;;;14.27;7.43;;;;;;;6.50;49.06;92934.66;2064788;69;20141;-81
2024/02/06 08:17:46;;;;;;;17.00;7.35;;;;;;;6.80;48.49;92925.88;2065323;69;20164;-83
2024/02/06 08:20:13;;;;;;;22.13;10.98;;;;;;;6.26;49.12;92937.00;2065459;69;20662;-82
2024/02/06 08:22:39;;;;;;;7.85;3.72;;;;;;;6.35;48.38;92939.13;2065397;69;20543;-82
2024/02/06 08:25:06;;;;;;;11.93;4.78;;;;;;;6.56;49.13;92916.31;2065463;69;20156;-81
2024/02/06 08:27:35;;;;;;;11.60;4.70;;;;;;;6.91;49.18;92932.25;2065206;69;20540;-81
2024/02/06 08:30:03;;;;;;;9.98;4.22;;;;;;;7.14;49.49;92932.66;2065322;69;20241;-81
2024/02/06 08:32:29;;;;;;;14.75;4.55;;;;;;;7.30;48.38;92924.75;2065256;69;20176;-82
2024/02/06 08:34:55;;;;;;;16.33;5.28;;;;;;;7.08;46.80;92918.94;2065393;69;20141;-82
2024/02/06 08:37:21;;;;;;;28.40;10.70;;;;;;;6.40;47.64;92933.88;2064954;69;20163;-82
2024/02/06 08:39:47;;;;;;;12.00;5.22;;;;;;;6.78;47.82;92913.78;2068603;69;20140;-83
2024/02/06 08:42:13;;;;;;;12.30;5.50;;;;;;;7.35;46.95;92915.34;2070116;69;20592;-82
2024/02/06 08:44:38;;;;;;;12.10;5.35;;;;;;;6.84;47.43;92931.06;2070157;69;20184;-81
2024/02/06 08:47:04;;;;;;;14.63;7.30;;;;;;;7.47;46.50;92915.50;2069681;69;20152;-82
2024/02/06 08:49:30;;;;;;;11.27;4.90;;;;;;;7.78;46.61;92919.25;2070048;69;20148;-82
2024/02/06 08:51:55;;;;;;;12.05;4.63;;;;;;;7.80;46.33;92911.00;2069487;69;20145;-82
2024/02/06 08:54:21;;;;;;;12.30;5.70;;;;;;;7.59;45.99;92911.56;2068415;69;20164;-83
2024/02/06 08:56:48;;;;;;;13.90;6.63;;;;;;;7.92;46.33;92907.63;2068637;69;20255;-83
2024/02/06 08:59:13;;;;;;;12.93;6.28;;;;;;;8.24;46.26;92920.47;2067622;69;20145;-83
2024/02/06 09:01:42;;;;;;;12.85;6.03;;;;;;;8.29;45.15;92908.22;2069106;69;20143;-82
2024/02/06 09:04:09;;;;;;;16.00;7.18;;;;;;;8.36;45.06;92899.69;2068073;69;20149;-85
2024/02/06 09:06:35;;;;;;;19.20;6.32;;;;;;;8.43;45.04;92908.53;2068602;69;20159;-83
2024/02/06 09:09:03;;;;;;;11.82;5.47;;;;;;;8.52;44.49;92897.31;2068159;69;20254;-83
2024/02/06 09:11:29;;;;;;;16.55;6.13;;;;;;;8.74;45.30;92897.41;2067467;69;20182;-86
2024/02/06 09:13:55;;;;;;;9.75;3.97;;;;;;;8.90;44.76;92893.66;2067922;69;20615;-82
2024/02/06 09:16:22;;;;;;;6.40;3.47;;;;;;;9.06;43.98;92882.06;2067564;69;20894;-82
2024/02/06 09:18:49;;;;;;;12.07;4.93;;;;;;;8.71;45.39;92890.19;2067078;69;20160;-82
2024/02/06 09:21:16;;;;;;;11.32;4.47;;;;;;;8.96;45.32;92892.63;2067567;69;20160;-82
2024/02/06 09:23:41;;;;;;;10.38;4.55;;;;;;;9.02;45.58;92864.94;2067113;69;20199;-82
2024/02/06 09:26:10;;;;;;;9.32;4.60;;;;;;;8.65;45.38;92893.28;2068445;69;20148;-85
2024/02/06 09:28:38;;;;;;;10.88;4.50;;;;;;;8.37;46.86;92892.75;2068537;69;20153;-83
2024/02/06 09:31:07;;;;;;;11.30;4.30;;;;;;;9.05;45.28;92891.84;2068793;69;20240;-82
2024/02/06 09:33:33;;;;;;;12.30;4.15;;;;;;;9.25;44.69;92881.25;2069499;69;20176;-81
2024/02/06 09:36:01;;;;;;;9.85;4.40;;;;;;;9.26;45.65;92863.09;2068895;69;20152;-82
2024/02/06 09:38:28;;;;;;;8.40;4.00;;;;;;;9.13;45.44;92867.13;2068712;69;20263;-83
2024/02/06 09:40:54;;;;;;;8.35;4.07;;;;;;;9.43;45.22;92857.94;2069208;69;20206;-87
2024/02/06 09:43:24;;;;;;;16.90;8.43;;;;;;;10.08;42.68;92872.00;2069391;69;20180;-85
2024/02/06 09:45:50;;;;;;;21.52;9.00;;;;;;;9.50;43.92;92878.03;2069943;69;20614;-87
2024/02/06 09:48:16;;;;;;;20.23;8.13;;;;;;;10.02;43.81;92874.44;2069338;69;20176;-87
2024/02/06 09:50:44;;;;;;;15.05;7.10;;;;;;;10.66;43.22;92869.44;2069126;69;20663;-87
2024/02/06 09:53:10;;;;;;;15.77;5.78;;;;;;;10.98;43.07;92877.72;2069229;69;20140;-88
2024/02/06 09:55:37;;;;;;;8.85;4.30;;;;;;;11.41;42.65;92867.00;2069227;69;20152;-87
2024/02/06 09:58:03;;;;;;;6.10;3.22;;;;;;;11.91;39.62;92855.19;2069211;69;20140;-91
2024/02/06 10:00:30;;;;;;;9.02;3.83;;;;;;;11.48;39.37;92888.53;2068977;69;20137;-88
2024/02/06 10:02:59;;;;;;;6.82;3.80;;;;;;;11.29;40.29;92881.06;2069052;69;20159;-85
2024/02/06 10:05:43;;;;;;;7.00;2.63;;;;;;;11.25;41.97;92871.63;2068547;69;20195;-87
2024/02/06 10:08:13;;;;;;;4.32;2.63;;;;;;;12.16;41.24;92881.97;2068331;69;20160;-86
2024/02/06 10:10:42;;;;;;;8.93;3.40;;;;;;;12.60;39.81;92878.13;2069146;69;20509;-87
2024/02/06 10:13:10;;;;;;;6.90;3.33;;;;;;;12.93;40.20;92849.59;2069225;69;20149;-88
2024/02/06 10:15:36;;;;;;;7.13;3.85;;;;;;;13.30;39.27;92862.16;2069219;69;20156;-87
2024/02/06 10:18:02;;;;;;;8.65;3.10;;;;;;;12.32;37.15;92868.78;2069551;69;20124;-85
2024/02/06 10:20:28;;;;;;;12.60;2.95;;;;;;;12.71;38.96;92865.31;2069721;69;20148;-86
2024/02/06 10:22:54;;;;;;;8.13;3.00;;;;;;;13.05;38.76;92854.41;2069045;69;20575;-86
2024/02/06 10:25:19;;;;;;;4.40;2.67;;;;;;;13.39;38.98;92856.28;2069257;69;20147;-86
2024/02/06 10:27:45;;;;;;;5.95;2.15;;;;;;;12.09;36.81;92858.28;2069136;69;20223;-86
2024/02/06 10:30:11;;;;;;;5.47;2.38;;;;;;;13.08;36.77;92845.44;2065777;69;20619;-85
2024/02/06 10:32:38;;;;;;;5.75;2.47;;;;;;;13.39;37.30;92858.41;2069045;69;20512;-85
2024/02/06 10:35:06;;;;;;;4.65;2.42;;;;;;;13.38;37.36;92854.84;2068843;69;20151;-83
2024/02/06 10:37:37;;;;;;;9.35;3.33;;;;;;;13.37;37.66;92833.56;2068458;69;20222;-88
2024/02/06 10:40:09;;;;;;;4.97;2.80;;;;;;;13.29;37.64;92835.25;2069253;69;20149;-86
2024/02/06 10:42:35;;;;;;;;;;;;;;;13.18;36.02;92837.50;2069178;69;20228;-87
2024/02/06 10:45:02;;;;;;;6.43;2.80;;;;;;;13.28;35.27;92831.66;2068987;69;20527;-86
2024/02/06 10:47:28;;;;;;;6.40;2.38;;;;;;;12.67;37.95;92834.00;2068560;69;20136;-86
2024/02/06 10:50:04;;;;;;;30.05;3.55;;;;;;;13.17;38.17;92829.63;2068912;69;20241;-85
2024/02/06 10:52:30;;;;;;;7.93;2.50;;;;;;;13.17;36.81;92830.38;2069059;69;20666;-83
2024/02/06 10:54:56;;;;;;;6.85;2.15;;;;;;;13.67;37.42;92814.63;2068816;69;20175;-84
2024/02/06 10:57:27;;;;;;;7.47;2.08;;;;;;;13.76;36.96;92812.94;2068752;69;20259;-83
2024/02/06 11:00:15;;;;;;;5.07;2.30;;;;;;;13.80;37.04;92813.16;2067995;69;20608;-83
2024/02/06 11:02:43;;;;;;;4.80;2.15;;;;;;;13.46;35.21;92807.16;2069298;69;20195;-82
2024/02/06 11:05:34;;;;;;;11.50;2.58;;;;;;;13.99;36.09;92794.97;2069504;69;20604;-85
2024/02/06 11:08:08;;;;;;;8.88;2.92;;;;;;;14.14;35.88;92796.41;2068864;69;20236;-81
2024/02/06 11:10:42;;;;;;;9.93;2.70;;;;;;;14.17;35.79;92792.31;2068799;69;20589;-84
2024/02/06 11:13:13;;;;;;;4.80;2.40;;;;;;;14.49;35.60;92793.19;2068808;69;20152;-82
2024/02/06 11:15:42;;;;;;;4.38;2.20;;;;;;;14.67;35.12;92794.03;2068674;69;20569;-82
2024/02/06 11:18:13;;;;;;;4.85;1.95;;;;;;;14.57;34.26;92787.16;2068088;69;20151;-83
2024/02/06 11:20:41;;;;;;;3.13;1.92;;;;;;;14.68;33.88;92787.00;2065315;69;20624;-86
2024/02/06 11:23:07;;;;;;;5.20;2.50;;;;;;;14.86;33.11;92781.47;2068639;69;20144;-85
2024/02/06 11:25:36;;;;;;;4.80;3.03;;;;;;;14.89;34.11;92770.94;2068743;69;20148;-82
2024/02/06 11:28:03;;;;;;;4.82;3.00;;;;;;;14.99;33.34;92774.97;2068723;69;20610;-80
2024/02/06 11:30:31;;;;;;;5.32;2.78;;;;;;;14.45;33.33;92771.03;2068671;69;20152;-81
2024/02/06 11:33:05;;;;;;;7.93;4.80;;;;;;;15.27;33.82;92774.78;2068832;69;20183;-88
2024/02/06 11:35:31;;;;;;;9.95;4.10;;;;;;;15.81;33.71;92763.69;2069006;69;20140;-84
2024/02/06 11:37:57;;;;;;;6.55;3.20;;;;;;;16.07;33.80;92761.19;2069307;69;20155;-83